Aalter, Belgium
Current Conditions -  °F | °C
As of 10:25 PM on Wednesday 26 Nov 2014 (Local Time) from EHFS Reporting Station
Haze Haze  
Wind Chill: 42°   Ceiling: Unl
Heat Index: 46°   Visibility: 0.62mi
Dew Point: 46°   Wind: 9mph
Humidity: 100%   Direction: 150°SSE
Pressure: 29.8"   Gusts: NA
Location:  51.09°N, 3.45°E
Report Text: EHFS 262125Z AUTO 15008KT 1000 BR OVC000/// 08/08 Q1009
Loading
Personal Weather Stations






























Interactive Weather Map New forecast layout! Learn more

10-Day Weather Forecast

Advertisements
Track Severe Weather on mobile